Lahaina, Hawaii
Current Conditions -  °F | °C
As of 11:54 PM on Sunday 21 Dec 2014 (Local Time) from PHOG Reporting Station
Clear Clear  
Wind Chill: 66°   Ceiling: Unl
Heat Index: 66°   Visibility: 10mi
Dew Point: 60°   Wind: 5mph
Humidity: 81%   Direction: 160°SSE
Pressure: 30.02"   Gusts: NA
Location:  20.88°N, 156.67°W
Report Text: PHOG 220954Z AUTO 16004KT 10SM CLR 19/16 A3002 RMK AO2 SLP169 T01890156 402940183 TSNO $
Loading
Personal Weather Stations






























Interactive Weather Map New forecast layout! Learn more

10-Day Weather Forecast

Advertisements
Track Severe Weather on mobile